createdAt,value
2023-02-23T00:01:30.349Z,100.00
2023-02-23T00:04:01.034Z,100.00
2023-02-23T00:06:33.686Z,100.00
2023-02-23T00:09:08.802Z,100.00
2023-02-23T00:11:38.759Z,100.00
2023-02-23T00:14:08.517Z,100.00
2023-02-23T00:16:38.340Z,100.00
2023-02-23T00:19:08.415Z,100.00
2023-02-23T00:21:38.941Z,100.00
2023-02-23T00:24:14.711Z,100.00
2023-02-23T00:26:47.807Z,100.00
2023-02-23T00:29:20.694Z,100.00
2023-02-23T00:31:52.215Z,100.00
2023-02-23T00:34:23.433Z,100.00
2023-02-23T00:36:55.557Z,100.00
2023-02-23T00:39:29.086Z,100.00
2023-02-23T00:42:03.116Z,100.00
2023-02-23T00:44:34.193Z,100.00
2023-02-23T00:47:04.060Z,100.00
2023-02-23T00:49:34.918Z,100.00
2023-02-23T00:52:05.318Z,100.00
2023-02-23T00:54:35.098Z,100.00
2023-02-23T00:57:04.850Z,100.00
2023-02-23T00:59:34.760Z,100.00
2023-02-23T01:02:04.617Z,100.00
2023-02-23T01:04:34.499Z,100.00
2023-02-23T01:07:06.431Z,100.00
2023-02-23T01:09:36.190Z,100.00
2023-02-23T01:12:10.013Z,100.00
2023-02-23T01:14:40.551Z,100.00
2023-02-23T01:17:10.344Z,100.00
2023-02-23T01:19:40.120Z,100.00
2023-02-23T01:22:09.151Z,100.00
2023-02-23T01:24:38.692Z,100.00
2023-02-23T01:27:08.743Z,100.00
2023-02-23T01:29:38.543Z,100.00
2023-02-23T01:32:08.418Z,100.00
2023-02-23T01:34:38.282Z,100.00
2023-02-23T01:37:08.766Z,100.00
2023-02-23T01:39:38.513Z,100.00
2023-02-23T01:42:16.330Z,100.00
2023-02-23T01:44:45.936Z,100.00
2023-02-23T01:47:17.245Z,100.00
2023-02-23T01:49:47.695Z,100.00
2023-02-23T01:52:19.589Z,100.00
2023-02-23T01:54:54.945Z,100.00
2023-02-23T01:57:27.017Z,100.00
2023-02-23T01:59:57.059Z,100.00
2023-02-23T02:02:33.596Z,100.00
2023-02-23T02:05:08.274Z,100.00
2023-02-23T02:07:40.126Z,100.00
2023-02-23T02:10:11.093Z,100.00
2023-02-23T02:12:53.910Z,100.00
2023-02-23T02:15:33.127Z,100.00
2023-02-23T02:18:38.207Z,100.00
2023-02-23T02:21:49.074Z,100.00
2023-02-23T02:24:59.843Z,100.00
2023-02-23T02:28:08.680Z,100.00
2023-02-23T02:31:22.031Z,100.00
2023-02-23T02:34:01.029Z,100.00
2023-02-23T02:36:51.189Z,100.00
2023-02-23T02:39:53.632Z,100.00
2023-02-23T02:42:36.612Z,100.00
2023-02-23T02:45:22.133Z,100.00
2023-02-23T02:48:18.463Z,100.00
2023-02-23T02:51:04.562Z,100.00
2023-02-23T02:53:45.176Z,100.00
2023-02-23T02:56:20.077Z,100.00
2023-02-23T02:58:53.612Z,100.00
2023-02-23T03:01:42.371Z,100.00
2023-02-23T03:04:44.135Z,100.00
2023-02-23T03:07:45.650Z,100.00
2023-02-23T03:11:00.259Z,100.00
2023-02-23T03:14:34.479Z,100.00
2023-02-23T03:17:28.714Z,100.00
2023-02-23T03:20:59.156Z,100.00
2023-02-23T03:24:15.202Z,100.00
2023-02-23T03:27:18.310Z,100.00
2023-02-23T03:30:38.453Z,100.00
2023-02-23T03:33:40.087Z,100.00
2023-02-23T03:36:40.505Z,100.00
2023-02-23T03:40:18.465Z,100.00
2023-02-23T03:43:12.167Z,100.00
2023-02-23T03:46:07.411Z,100.00
2023-02-23T03:48:59.574Z,100.00
2023-02-23T03:51:53.915Z,100.00
2023-02-23T03:55:00.545Z,100.00
2023-02-23T03:57:55.387Z,100.00
2023-02-23T04:00:52.883Z,100.00
2023-02-23T04:03:44.922Z,100.00
2023-02-23T04:06:37.630Z,100.00
2023-02-23T04:09:27.355Z,100.00
2023-02-23T04:12:23.821Z,100.00
2023-02-23T04:15:08.287Z,100.00
2023-02-23T04:17:38.975Z,100.00
2023-02-23T04:20:12.117Z,100.00
2023-02-23T04:22:41.980Z,100.00
2023-02-23T04:25:17.401Z,100.00
2023-02-23T04:27:47.532Z,100.00
2023-02-23T04:30:20.696Z,100.00
2023-02-23T04:32:50.782Z,100.00
2023-02-23T04:35:21.206Z,100.00
2023-02-23T04:37:51.113Z,100.00
2023-02-23T04:40:23.945Z,100.00
2023-02-23T04:42:55.535Z,100.00
2023-02-23T04:45:26.866Z,100.00
2023-02-23T04:47:57.080Z,100.00
2023-02-23T04:50:27.056Z,100.00
2023-02-23T04:52:56.828Z,100.00
2023-02-23T04:55:26.943Z,100.00
2023-02-23T04:58:02.146Z,100.00
2023-02-23T05:00:34.099Z,100.00
2023-02-23T05:03:03.977Z,100.00
2023-02-23T05:05:33.902Z,100.00
2023-02-23T05:08:03.989Z,100.00
2023-02-23T05:10:33.695Z,100.00
2023-02-23T05:13:03.633Z,100.00
2023-02-23T05:15:33.588Z,100.00
2023-02-23T05:18:03.653Z,100.00
2023-02-23T05:20:33.547Z,100.00
2023-02-23T05:23:03.716Z,100.00
2023-02-23T05:25:33.635Z,100.00
2023-02-23T05:28:03.692Z,100.00
2023-02-23T05:30:33.793Z,100.00
2023-02-23T05:33:03.712Z,100.00
2023-02-23T05:35:33.682Z,100.00
2023-02-23T05:38:03.521Z,100.00
2023-02-23T05:40:32.338Z,100.00
2023-02-23T05:43:00.361Z,100.00
2023-02-23T05:45:29.018Z,100.00
2023-02-23T05:47:57.253Z,100.00
2023-02-23T05:50:26.444Z,100.00
2023-02-23T05:52:53.978Z,100.00
2023-02-23T05:55:22.493Z,100.00
2023-02-23T05:57:51.055Z,100.00
2023-02-23T06:00:20.000Z,100.00
2023-02-23T06:02:48.327Z,100.00
2023-02-23T06:05:16.692Z,100.00
2023-02-23T06:07:44.659Z,100.00
2023-02-23T06:10:13.249Z,100.00
2023-02-23T06:12:41.563Z,100.00
2023-02-23T06:15:10.653Z,100.00
2023-02-23T06:17:38.240Z,100.00
2023-02-23T06:20:07.495Z,100.00
2023-02-23T06:22:35.023Z,100.00
2023-02-23T06:25:05.099Z,100.00
2023-02-23T06:27:35.892Z,100.00
2023-02-23T06:30:03.630Z,100.00
2023-02-23T06:32:32.408Z,100.00
2023-02-23T06:35:00.867Z,100.00
2023-02-23T06:37:28.485Z,100.00
2023-02-23T06:39:57.090Z,100.00
2023-02-23T06:42:25.671Z,100.00
2023-02-23T06:44:53.793Z,100.00
2023-02-23T06:47:22.161Z,100.00
2023-02-23T06:49:50.520Z,100.00
2023-02-23T06:52:19.278Z,100.00
2023-02-23T06:54:48.374Z,100.00
2023-02-23T06:57:16.693Z,100.00
2023-02-23T06:59:44.140Z,100.00
2023-02-23T07:02:14.267Z,100.00
2023-02-23T07:04:41.604Z,100.00
2023-02-23T07:07:10.480Z,100.00
2023-02-23T07:09:41.296Z,100.00
2023-02-23T07:12:14.166Z,100.00
2023-02-23T07:14:43.993Z,100.00
2023-02-23T07:17:13.740Z,100.00
2023-02-23T07:19:44.138Z,100.00
2023-02-23T07:22:14.066Z,100.00
2023-02-23T07:24:43.808Z,100.00
2023-02-23T07:27:13.994Z,100.00
2023-02-23T07:29:43.750Z,100.00
2023-02-23T07:32:13.750Z,100.00
2023-02-23T07:34:43.827Z,100.00
2023-02-23T07:37:13.935Z,100.00
2023-02-23T07:39:44.170Z,100.00
2023-02-23T07:42:15.118Z,100.00
2023-02-23T07:44:45.085Z,100.00
2023-02-23T07:47:15.251Z,100.00
2023-02-23T07:49:45.277Z,100.00
2023-02-23T07:52:19.011Z,100.00
2023-02-23T07:54:48.753Z,100.00
2023-02-23T07:57:20.057Z,100.00
2023-02-23T07:59:51.271Z,100.00
2023-02-23T08:02:21.091Z,100.00
2023-02-23T08:04:54.113Z,100.00
2023-02-23T08:07:25.877Z,100.00
2023-02-23T08:09:55.606Z,100.00
2023-02-23T08:12:25.896Z,100.00
2023-02-23T08:14:55.665Z,100.00
2023-02-23T08:17:26.014Z,100.00
2023-02-23T08:19:55.830Z,100.00
2023-02-23T08:22:26.228Z,100.00
2023-02-23T08:24:56.153Z,100.00
2023-02-23T08:27:26.359Z,100.00
2023-02-23T08:29:57.848Z,100.00
2023-02-23T08:32:25.908Z,100.00
2023-02-23T08:34:54.853Z,100.00
2023-02-23T08:37:22.677Z,100.00
2023-02-23T08:39:51.260Z,100.00
2023-02-23T08:42:19.901Z,100.00
2023-02-23T08:44:50.921Z,100.00
2023-02-23T08:47:24.364Z,100.00
2023-02-23T08:49:54.459Z,100.00
2023-02-23T08:52:25.428Z,100.00
2023-02-23T08:54:56.435Z,100.00
2023-02-23T08:57:27.074Z,100.00
2023-02-23T08:59:56.885Z,100.00
2023-02-23T09:02:27.558Z,100.00
2023-02-23T09:04:57.869Z,100.00
2023-02-23T09:07:27.689Z,100.00
2023-02-23T09:09:58.916Z,100.00
2023-02-23T09:12:28.697Z,100.00
2023-02-23T09:14:58.516Z,100.00
2023-02-23T09:17:28.300Z,100.00
2023-02-23T09:19:58.369Z,100.00
2023-02-23T09:22:28.131Z,100.00
2023-02-23T09:24:57.980Z,100.00
2023-02-23T09:27:27.974Z,100.00
2023-02-23T09:29:57.831Z,100.00
2023-02-23T09:32:27.752Z,100.00
2023-02-23T09:34:57.716Z,100.00
2023-02-23T09:37:27.644Z,100.00
2023-02-23T09:39:58.173Z,99.90
2023-02-23T09:42:50.767Z,98.90
2023-02-23T09:45:31.988Z,99.14
2023-02-23T09:48:09.427Z,98.37
2023-02-23T09:50:44.944Z,96.39
2023-02-23T09:53:34.182Z,96.42
2023-02-23T09:56:37.892Z,96.07
2023-02-23T09:59:15.591Z,94.80
2023-02-23T10:01:47.996Z,92.06
2023-02-23T10:04:31.180Z,93.34
2023-02-23T10:07:26.283Z,91.11
2023-02-23T10:10:59.918Z,88.62
2023-02-23T10:13:46.764Z,91.03
2023-02-23T10:16:31.019Z,91.75
2023-02-23T10:19:32.149Z,93.70
2023-02-23T10:22:07.665Z,89.71
2023-02-23T10:24:49.116Z,91.76
2023-02-23T10:27:23.695Z,89.98
2023-02-23T10:30:00.641Z,86.90
2023-02-23T10:33:07.573Z,88.51
2023-02-23T10:35:39.637Z,83.26
2023-02-23T10:38:19.184Z,84.46
2023-02-23T10:40:55.448Z,84.45
2023-02-23T10:43:25.779Z,83.70
2023-02-23T10:45:56.322Z,84.86
2023-02-23T10:48:31.867Z,85.75
2023-02-23T10:51:05.918Z,84.03
2023-02-23T10:53:36.865Z,84.86
2023-02-23T10:56:12.634Z,85.54
2023-02-23T10:58:58.725Z,82.65
2023-02-23T11:02:00.305Z,82.00
2023-02-23T11:04:37.578Z,83.10
2023-02-23T11:07:21.261Z,84.73
2023-02-23T11:09:52.856Z,85.47
2023-02-23T11:12:28.498Z,86.65
2023-02-23T11:14:59.035Z,84.70
2023-02-23T11:17:37.160Z,85.96
2023-02-23T11:20:31.559Z,85.45
2023-02-23T11:23:24.690Z,86.38
2023-02-23T11:26:02.510Z,87.69
2023-02-23T11:28:42.678Z,86.89
2023-02-23T11:31:31.172Z,88.26
2023-02-23T11:34:05.698Z,87.80
2023-02-23T11:36:37.911Z,87.96
2023-02-23T11:39:23.460Z,87.69
2023-02-23T11:42:19.194Z,88.63
2023-02-23T11:45:07.624Z,88.50
2023-02-23T11:47:44.427Z,89.30
2023-02-23T11:50:23.848Z,90.89
2023-02-23T11:53:16.220Z,90.77
2023-02-23T11:55:55.702Z,89.42
2023-02-23T11:58:49.418Z,89.89
2023-02-23T12:01:34.636Z,90.09
2023-02-23T12:04:04.969Z,91.28
2023-02-23T12:06:41.141Z,91.19
2023-02-23T12:09:34.056Z,90.15
2023-02-23T12:12:16.945Z,91.04
2023-02-23T12:15:00.208Z,91.05
2023-02-23T12:17:47.198Z,92.07
2023-02-23T12:20:34.797Z,90.45
2023-02-23T12:23:13.905Z,90.99
2023-02-23T12:25:59.824Z,90.67
2023-02-23T12:29:21.706Z,89.55
2023-02-23T12:32:26.669Z,88.43
2023-02-23T12:35:08.200Z,89.06
2023-02-23T12:37:45.089Z,89.16
2023-02-23T12:40:32.306Z,89.03
2023-02-23T12:43:05.003Z,90.07
2023-02-23T12:46:07.432Z,89.96
2023-02-23T12:49:01.412Z,90.17
2023-02-23T12:51:43.399Z,90.53
2023-02-23T12:54:16.523Z,90.74
2023-02-23T12:57:03.668Z,90.07
2023-02-23T13:00:24.723Z,90.00
2023-02-23T13:03:33.375Z,90.12
2023-02-23T13:06:36.696Z,90.05
2023-02-23T13:09:51.407Z,89.52
2023-02-23T13:12:54.444Z,89.41
2023-02-23T13:15:26.989Z,87.92
2023-02-23T13:18:16.294Z,89.13
2023-02-23T13:20:51.120Z,89.57
2023-02-23T13:23:49.128Z,89.50
2023-02-23T13:26:33.766Z,89.55
2023-02-23T13:29:14.151Z,89.20
2023-02-23T13:31:45.235Z,89.52
2023-02-23T13:34:40.609Z,89.12
2023-02-23T13:37:16.988Z,90.51
2023-02-23T13:39:58.853Z,90.28
2023-02-23T13:43:18.369Z,89.80
2023-02-23T13:45:53.543Z,90.96
2023-02-23T13:48:57.278Z,90.54
2023-02-23T13:51:47.190Z,90.94
2023-02-23T13:54:18.909Z,91.04
2023-02-23T13:56:55.379Z,91.07
2023-02-23T13:59:46.236Z,90.93
2023-02-23T14:02:38.887Z,92.34
2023-02-23T14:05:13.485Z,93.00
2023-02-23T14:07:47.180Z,93.25
2023-02-23T14:10:23.064Z,94.02
2023-02-23T14:13:26.478Z,94.57
2023-02-23T14:16:20.501Z,95.51
2023-02-23T14:19:35.231Z,95.75
2023-02-23T14:22:18.632Z,96.02
2023-02-23T14:25:35.168Z,96.25
2023-02-23T14:28:30.656Z,96.71
2023-02-23T14:31:02.554Z,96.85
2023-02-23T14:33:48.531Z,97.44
2023-02-23T14:36:21.387Z,97.98
2023-02-23T14:39:00.821Z,98.33
2023-02-23T14:41:53.001Z,99.43
2023-02-23T14:44:31.329Z,100.00
2023-02-23T14:47:11.535Z,100.00
2023-02-23T14:49:51.426Z,100.00
2023-02-23T14:52:24.771Z,100.00
2023-02-23T14:55:12.976Z,100.00
2023-02-23T14:57:43.883Z,100.00
2023-02-23T15:00:25.408Z,100.00
2023-02-23T15:03:05.683Z,100.00
2023-02-23T15:05:47.119Z,100.00
2023-02-23T15:08:23.072Z,100.00
2023-02-23T15:11:10.795Z,100.00
2023-02-23T15:13:47.845Z,100.00
2023-02-23T15:16:37.496Z,100.00
2023-02-23T15:19:07.530Z,100.00
2023-02-23T15:21:39.681Z,100.00
2023-02-23T15:24:21.394Z,100.00
2023-02-23T15:26:52.185Z,100.00
2023-02-23T15:29:33.104Z,100.00
2023-02-23T15:32:25.783Z,100.00
2023-02-23T15:34:56.026Z,100.00
2023-02-23T15:37:35.970Z,100.00
2023-02-23T15:40:15.412Z,100.00
2023-02-23T15:42:55.639Z,100.00
2023-02-23T15:45:46.591Z,100.00
2023-02-23T15:48:22.828Z,100.00
2023-02-23T15:50:57.804Z,100.00
2023-02-23T15:53:38.603Z,100.00
2023-02-23T15:56:20.994Z,100.00
2023-02-23T15:58:57.181Z,100.00
2023-02-23T16:01:32.453Z,100.00
2023-02-23T16:04:19.026Z,100.00
2023-02-23T16:07:07.264Z,100.00
2023-02-23T16:09:46.867Z,100.00
2023-02-23T16:12:32.014Z,100.00
2023-02-23T16:15:21.180Z,100.00
2023-02-23T16:17:57.940Z,100.00
2023-02-23T16:20:44.403Z,100.00
2023-02-23T16:23:33.394Z,100.00
2023-02-23T16:26:12.236Z,100.00
2023-02-23T16:28:46.106Z,100.00
2023-02-23T16:31:27.007Z,100.00
2023-02-23T16:34:00.123Z,100.00
2023-02-23T16:36:39.729Z,100.00
2023-02-23T16:39:13.343Z,100.00
2023-02-23T16:41:47.384Z,100.00
2023-02-23T16:44:21.680Z,100.00
2023-02-23T16:47:02.000Z,100.00
2023-02-23T16:49:31.750Z,100.00
2023-02-23T16:52:12.831Z,100.00
2023-02-23T16:54:42.687Z,100.00
2023-02-23T16:57:29.654Z,100.00
2023-02-23T17:00:00.514Z,100.00
2023-02-23T17:02:30.471Z,100.00
2023-02-23T17:05:00.372Z,100.00
2023-02-23T17:07:30.200Z,100.00
2023-02-23T17:09:59.982Z,100.00
2023-02-23T17:12:29.831Z,100.00
2023-02-23T17:14:59.887Z,100.00
2023-02-23T17:17:31.409Z,100.00
2023-02-23T17:20:01.185Z,100.00
2023-02-23T17:22:33.408Z,100.00
2023-02-23T17:25:03.009Z,100.00
2023-02-23T17:27:30.855Z,100.00
2023-02-23T17:29:59.208Z,100.00
2023-02-23T17:32:29.915Z,100.00
2023-02-23T17:34:59.152Z,100.00
2023-02-23T17:37:27.862Z,100.00
2023-02-23T17:39:55.902Z,100.00
2023-02-23T17:42:34.987Z,100.00
2023-02-23T17:45:07.856Z,100.00
2023-02-23T17:47:42.627Z,100.00
2023-02-23T17:50:12.619Z,100.00
2023-02-23T17:52:42.413Z,100.00
2023-02-23T17:55:12.727Z,100.00
2023-02-23T17:57:44.242Z,100.00
2023-02-23T18:00:17.443Z,100.00
2023-02-23T18:02:47.639Z,100.00
2023-02-23T18:05:17.554Z,100.00
2023-02-23T18:07:48.889Z,100.00
2023-02-23T18:10:19.175Z,100.00
2023-02-23T18:12:48.964Z,100.00
2023-02-23T18:15:20.688Z,100.00
2023-02-23T18:17:54.447Z,100.00
2023-02-23T18:20:24.210Z,100.00
2023-02-23T18:22:54.419Z,100.00
2023-02-23T18:25:29.711Z,100.00
2023-02-23T18:27:59.752Z,100.00
2023-02-23T18:30:29.910Z,100.00
2023-02-23T18:33:00.799Z,100.00
2023-02-23T18:35:37.774Z,100.00
2023-02-23T18:38:14.717Z,100.00
2023-02-23T18:40:45.264Z,100.00
2023-02-23T18:43:15.396Z,100.00
2023-02-23T18:45:45.179Z,100.00
2023-02-23T18:48:14.458Z,100.00
2023-02-23T18:50:42.046Z,100.00
2023-02-23T18:53:10.968Z,100.00
2023-02-23T18:55:39.058Z,100.00
2023-02-23T18:58:07.674Z,100.00
2023-02-23T19:00:40.030Z,100.00
2023-02-23T19:03:07.563Z,100.00
2023-02-23T19:05:37.792Z,100.00
2023-02-23T19:08:08.520Z,100.00
2023-02-23T19:10:38.518Z,100.00
2023-02-23T19:13:09.277Z,100.00
2023-02-23T19:15:39.609Z,100.00
2023-02-23T19:18:09.381Z,100.00
2023-02-23T19:20:39.180Z,100.00
2023-02-23T19:23:10.072Z,100.00
2023-02-23T19:25:39.935Z,100.00
2023-02-23T19:28:09.790Z,100.00
2023-02-23T19:30:44.926Z,100.00
2023-02-23T19:33:16.572Z,100.00
2023-02-23T19:35:46.558Z,100.00
2023-02-23T19:38:16.990Z,100.00
2023-02-23T19:40:47.288Z,100.00
2023-02-23T19:43:17.110Z,100.00
2023-02-23T19:45:48.284Z,100.00
2023-02-23T19:48:18.439Z,100.00
2023-02-23T19:50:49.707Z,100.00
2023-02-23T19:53:19.585Z,100.00
2023-02-23T19:56:06.533Z,100.00
2023-02-23T19:58:37.845Z,100.00
2023-02-23T20:01:11.585Z,100.00
2023-02-23T20:03:43.262Z,100.00
2023-02-23T20:06:17.367Z,100.00
2023-02-23T20:08:48.899Z,100.00
2023-02-23T20:11:20.130Z,100.00
2023-02-23T20:13:51.312Z,100.00
2023-02-23T20:16:21.667Z,100.00
2023-02-23T20:18:51.481Z,100.00
2023-02-23T20:21:26.148Z,100.00
2023-02-23T20:23:56.938Z,100.00
2023-02-23T20:26:35.428Z,100.00
2023-02-23T20:29:10.879Z,100.00
2023-02-23T20:31:51.392Z,100.00
2023-02-23T20:34:24.597Z,100.00
2023-02-23T20:36:55.783Z,100.00
2023-02-23T20:39:27.041Z,100.00
2023-02-23T20:41:53.990Z,100.00
2023-02-23T20:44:25.644Z,100.00
2023-02-23T20:46:53.860Z,100.00
2023-02-23T20:49:22.728Z,100.00
2023-02-23T20:51:50.748Z,100.00
2023-02-23T20:54:19.519Z,100.00
2023-02-23T20:56:58.876Z,100.00
2023-02-23T20:59:31.124Z,100.00
2023-02-23T21:02:01.747Z,100.00
2023-02-23T21:04:32.238Z,100.00
2023-02-23T21:07:05.367Z,100.00
2023-02-23T21:09:34.051Z,100.00
2023-02-23T21:12:04.144Z,100.00
2023-02-23T21:14:35.480Z,100.00
2023-02-23T21:17:05.325Z,100.00
2023-02-23T21:19:36.449Z,100.00
2023-02-23T21:22:05.810Z,100.00
2023-02-23T21:24:40.928Z,100.00
2023-02-23T21:27:13.092Z,100.00
2023-02-23T21:29:43.216Z,100.00
2023-02-23T21:32:14.457Z,100.00
2023-02-23T21:34:44.144Z,100.00
2023-02-23T21:37:12.679Z,100.00
2023-02-23T21:39:41.444Z,100.00
2023-02-23T21:42:13.066Z,100.00
2023-02-23T21:44:44.319Z,100.00
2023-02-23T21:47:14.903Z,100.00
2023-02-23T21:49:49.210Z,100.00
2023-02-23T21:52:19.188Z,100.00
2023-02-23T21:54:51.179Z,100.00
2023-02-23T21:57:26.121Z,100.00
2023-02-23T21:59:56.142Z,100.00
2023-02-23T22:02:30.535Z,100.00
2023-02-23T22:05:00.528Z,100.00
2023-02-23T22:07:30.299Z,100.00
2023-02-23T22:10:00.897Z,100.00
2023-02-23T22:12:32.566Z,100.00
2023-02-23T22:15:12.646Z,100.00
2023-02-23T22:17:41.006Z,100.00
2023-02-23T22:20:09.841Z,100.00
2023-02-23T22:22:40.403Z,100.00
2023-02-23T22:25:10.636Z,100.00
2023-02-23T22:27:43.729Z,100.00
2023-02-23T22:30:15.093Z,100.00
2023-02-23T22:32:45.472Z,100.00
2023-02-23T22:35:15.725Z,100.00
2023-02-23T22:37:45.580Z,100.00
2023-02-23T22:40:17.115Z,100.00
2023-02-23T22:42:48.522Z,100.00
2023-02-23T22:45:18.787Z,100.00
2023-02-23T22:47:48.802Z,100.00
2023-02-23T22:50:19.238Z,100.00
2023-02-23T22:52:49.081Z,100.00
2023-02-23T22:55:19.358Z,100.00
2023-02-23T22:57:49.100Z,100.00
2023-02-23T23:00:19.767Z,100.00
2023-02-23T23:02:49.827Z,100.00
2023-02-23T23:05:21.713Z,100.00
2023-02-23T23:07:51.410Z,100.00
2023-02-23T23:10:19.871Z,100.00
2023-02-23T23:12:48.892Z,100.00
2023-02-23T23:15:18.983Z,100.00
2023-02-23T23:17:50.172Z,100.00
2023-02-23T23:20:25.549Z,100.00
2023-02-23T23:22:57.314Z,100.00
2023-02-23T23:25:29.113Z,100.00
2023-02-23T23:27:59.084Z,100.00
2023-02-23T23:30:29.270Z,100.00
2023-02-23T23:32:58.348Z,100.00
2023-02-23T23:35:28.339Z,100.00
2023-02-23T23:38:01.677Z,100.00
2023-02-23T23:40:35.656Z,100.00
2023-02-23T23:43:07.657Z,100.00
2023-02-23T23:45:40.520Z,100.00
2023-02-23T23:48:09.490Z,100.00
2023-02-23T23:50:39.758Z,100.00
2023-02-23T23:53:10.645Z,100.00
2023-02-23T23:55:37.993Z,100.00
2023-02-23T23:58:06.947Z,100.00
